メインページ
METAR-TAF:

METAR-TAF

空港 :

ブルネイ, ブルネイ

ブルネイ国際空港

緯度: 04-56N, 経度: 114-56E, 海抜: 22m

現時点の気象観測

当レポートは35分前の12:30(UTC)に作成
の風 4kt
気温 30°C
湿度 75%
気圧 1008 hPa
視程10km以上
高度1500ftの雲はほとんどない
高度14000ftの千切れ雲あり

METAR: WBSB 241230Z 36004KT 9999 FEW015 BKN140 30/25 Q1008 NOSIG

時間: 21:05 (13:05 UTC)

予報

当レポートは2時間15分前の10:50(UTC)に作成
予報は24日の 12時(UTC)から 25日の 18時(UTC)まで有効
北/北東の風 8kt
視程10km以上
高度1500ftの雲はほとんどない
24日の 16時(UTC)から 24日の 18時(UTC)まで徐々に
南/南西の風 1kt
25日の 03時(UTC)から 25日の 05時(UTC)まで徐々に
の風 10kt
高度1600ftの雲はほとんどない
高度1700ftの雲はほとんどない, 積乱雲.

TAF: WBSB 241050Z 2412/2518 02008KT 9999 FEW015 BECMG 2416/2418 20001KT BECMG 2503/2505 35010KT FEW016 FEW017CB

4,000以上の空港の気象観測と天気予報(METAR報とTAF報)

利用可能な観測所は地図上に黄色い丸と赤い丸で示す。

丸の上にカーソルを重ねると観測所名を参照できる。

次にクリックすると気象観測と天気予報を参照できる。

マップの切り替え:黒色「×」印の緑ボタンをクリックして拡大、「-」印の緑ボタンをクリックして縮小、緑色の三角印をクリックして隣りの地図に切り替え


METAR-TAF: